Data for 01/23/2015

Time Sea-Level Adjusted Pressure Absolute Pressure Temperature Relative Humidity Dew Point   
(mb) (inHg) (mb) (inHg) (C) (F) (%) (C) (F)
00:05 1026 30.3 855 25.25 2.1 35.8 52 -6.7 19.9
00:10 1026 30.3 855 25.25 1.9 35.5 51 -7.2 19.1
00:15 1026 30.3 855 25.25 2 35.7 50 -7.2 19
00:20 1026 30.3 855 25.25 2 35.6 51 -7.1 19.2
00:25 1026 30.3 855 25.25 2 35.6 50 -7.2 19
00:30 1026 30.3 855 25.25 2.2 36 51 -7 19.4
00:35 1026 30.3 855 25.25 2.3 36.1 50 -7.2 19.1
00:40 1026 30.3 855 25.25 2.3 36.1 49 -7.3 18.8
00:45 1026 30.3 855 25.25 2.3 36.2 49 -7.3 18.9
00:50 1026 30.3 855 25.25 2.5 36.4 49 -7.3 18.8
00:55 1026 30.3 855 25.25 2.5 36.5 49 -7.1 19.1
01:00 1026 30.3 855 25.25 2.4 36.3 50 -7.1 19.3
01:05 1026 30.3 855 25.25 2.4 36.3 48 -7.4 18.7
01:10 1026 30.3 855 25.25 2.5 36.6 48 -7.3 18.8
01:15 1026 30.3 855 25.25 2.5 36.6 49 -7.2 19
01:20 1026 30.3 855 25.25 2.4 36.4 50 -7 19.5
01:25 1026 30.3 855 25.25 2.3 36.2 50 -7.1 19.2
01:30 1026 30.3 855 25.25 2.2 35.9 53 -6.4 20.5
01:35 1026 30.3 855 25.25 1.9 35.5 54 -6.4 20.5
01:40 1026 30.3 855 25.25 1.9 35.4 52 -7 19.5
01:45 1026 30.3 855 25.25 2.2 35.9 51 -6.9 19.5
01:50 1026 30.3 855 25.25 2.1 35.8 54 -6.3 20.7
01:55 1026 30.3 855 25.25 1.8 35.2 56 -6.1 21
02:00 1026 30.3 855 25.25 1.7 35 56 -6.2 20.8
02:05 1026 30.3 855 25.25 1.6 35 54 -6.6 20.1
02:10 1026 30.3 855 25.25 1.7 35.1 54 -6.7 20
02:15 1026 30.3 855 25.25 1.8 35.2 54 -6.6 20.2
02:20 1026 30.3 855 25.25 2 35.6 53 -6.6 20.1
02:25 1026 30.3 855 25.25 2.2 36 50 -7.1 19.2
02:30 1026 30.3 855 25.25 2.4 36.3 50 -7.1 19.2
02:35 1026 30.3 855 25.25 2.5 36.5 50 -7 19.4
02:40 1026 30.3 855 25.25 2.5 36.6 49 -7.1 19.2
02:45 1026 30.3 855 25.25 2.6 36.8 49 -7 19.4
02:50 1026 30.3 855 25.25 2.7 36.8 49 -6.9 19.5
02:55 1026 30.3 855 25.25 2.6 36.7 49 -7 19.4
03:00 1026 30.3 855 25.25 2.6 36.6 50 -6.8 19.7
03:05 1026 30.3 855 25.25 2.5 36.4 51 -6.7 19.9
03:10 1026 30.3 855 25.25 2.4 36.3 51 -6.8 19.7
03:15 1026 30.3 855 25.25 2.3 36.1 52 -6.7 20
03:20 1026 30.3 855 25.25 2.2 36 51 -7 19.4
03:25 1026 30.3 855 25.25 2.2 36 51 -7 19.4
03:30 1026 30.3 855 25.25 2.2 35.9 51 -6.9 19.5
03:35 1026 30.3 855 25.25 2.1 35.8 53 -6.4 20.4
03:40 1026 30.3 855 25.25 1.6 34.9 60 -5.2 22.6
03:45 1026 30.3 855 25.25 1 33.9 64 -5.1 22.8
03:50 1026 30.3 855 25.25 0.7 33.3 65 -5 22.9
03:55 1026 30.3 855 25.25 0.5 32.9 66 -5 23
04:00 1026 30.3 855 25.25 0.5 33 67 -5 23.1
04:05 1026 30.3 855 25.25 0.6 33 67 -4.9 23.2
04:10 1026 30.3 855 25.25 0.7 33.2 65 -5.2 22.6
04:15 1026 30.3 855 25.25 0.8 33.4 64 -5.3 22.4
04:20 1026 30.3 855 25.25 0.8 33.4 63 -5.5 22.1
04:25 1026 30.3 855 25.25 0.8 33.4 62 -5.7 21.7
04:30 1026 30.3 855 25.25 0.8 33.4 60 -6.1 21
04:35 1026 30.3 855 25.25 1 33.8 59 -6.2 20.9
04:40 1026 30.3 855 25.25 1.1 34 57 -6.4 20.5
04:45 1026 30.3 855 25.25 1.2 34.1 57 -6.3 20.6
04:50 1026 30.3 855 25.25 1.2 34.1 55 -6.8 19.7
04:55 1026 30.3 855 25.25 1.2 34.2 54 -7 19.4
05:00 1026 30.3 855 25.25 1.3 34.3 54 -6.9 19.5
05:05 1026 30.3 855 25.25 1.3 34.4 55 -6.8 19.8
05:10 1026 30.3 855 25.25 1.3 34.4 54 -6.8 19.7
05:15 1026 30.3 855 25.25 1.4 34.6 53 -7 19.3
05:20 1026 30.3 855 25.25 1.5 34.6 54 -6.9 19.5
05:25 1026 30.3 855 25.25 1.5 34.7 54 -7 19.5
05:30 1026 30.3 855 25.25 1.5 34.7 53 -7 19.5
05:35 1026 30.3 855 25.25 1.5 34.8 52 -7.3 18.9
05:40 1026 30.3 855 25.25 1.7 35 54 -6.6 20.1
05:45 1026 30.3 855 25.25 1.5 34.7 55 -6.6 20.1
05:50 1026 30.3 856 25.28 1.5 34.8 54 -6.7 19.9
05:55 1026 30.3 856 25.28 1.6 34.9 53 -7.1 19.3
06:00 1026 30.3 856 25.28 1.8 35.2 51 -7.4 18.7
06:05 1026 30.3 855 25.25 1.9 35.5 52 -6.9 19.6
06:10 1026 30.3 855 25.25 1.8 35.3 52 -7 19.4
06:15 1026 30.3 856 25.28 1.8 35.2 53 -6.9 19.6
06:20 1026 30.3 856 25.28 1.8 35.2 53 -6.8 19.8
06:25 1026 30.3 856 25.28 1.7 35 55 -6.4 20.5
06:30 1026 30.3 856 25.28 1.4 34.6 55 -6.6 20.2
06:35 1026 30.3 856 25.28 1.4 34.6 57 -6.1 21
06:40 1026 30.3 856 25.28 1.2 34.2 58 -6.2 20.8
06:45 1026 30.3 855 25.25 1.3 34.4 56 -6.4 20.4
06:50 1026 30.3 856 25.28 1.4 34.5 57 -6.3 20.6
06:55 1026 30.3 856 25.28 1.4 34.5 56 -6.5 20.4
07:00 1026 30.3 856 25.28 1.3 34.4 55 -6.6 20.1
07:05 1026 30.3 856 25.28 1.3 34.4 57 -6.3 20.6
07:10 1026 30.3 856 25.28 1.3 34.4 56 -6.5 20.3
07:15 1026 30.3 856 25.28 1.4 34.5 56 -6.5 20.3
07:20 1026 30.3 856 25.28 1.3 34.3 57 -6.4 20.5
07:25 1026 30.3 856 25.28 1.1 34.1 57 -6.5 20.4
07:30 1026 30.3 856 25.28 1.1 34.1 56 -6.6 20.1
07:35 1026 30.3 856 25.28 1.2 34.2 56 -6.7 19.9
07:40 1026 30.3 856 25.28 1.3 34.4 55 -6.7 20
07:45 1026 30.3 856 25.28 1.4 34.5 55 -6.7 19.9
07:50 1027 30.33 856 25.28 1.5 34.6 55 -6.7 20
07:55 1027 30.33 856 25.28 1.5 34.7 54 -6.7 19.9
08:00 1027 30.33 856 25.28 1.6 34.8 54 -6.8 19.8
08:05 1027 30.33 856 25.28 1.6 34.8 55 -6.6 20.1
08:10 1027 30.33 856 25.28 1.6 34.8 54 -6.7 20
08:15 1027 30.33 856 25.28 1.6 34.8 55 -6.6 20.1
08:20 1027 30.33 856 25.28 1.5 34.7 54 -6.8 19.8
08:25 1027 30.33 856 25.28 1.5 34.7 55 -6.7 20
08:30 1027 30.33 856 25.28 1.5 34.7 55 -6.6 20.2
08:35 1027 30.33 856 25.28 1.5 34.7 55 -6.5 20.3
08:40 1027 30.33 856 25.28 1.5 34.8 55 -6.6 20.1
08:45 1027 30.33 856 25.28 1.5 34.8 55 -6.6 20.1
08:50 1027 30.33 856 25.28 1.6 34.9 55 -6.5 20.3
08:55 1027 30.33 856 25.28 1.7 35.1 55 -6.5 20.4
09:00 1027 30.33 856 25.28 1.8 35.2 55 -6.3 20.6
09:05 1027 30.33 856 25.28 1.8 35.2 55 -6.2 20.8
09:10 1027 30.33 856 25.28 1.8 35.2 56 -6 21.2
09:15 1027 30.33 857 25.31 1.7 35.1 57 -5.9 21.4
09:20 1027 30.33 857 25.31 1.7 35.1 57 -5.9 21.5
09:25 1027 30.33 857 25.31 1.7 35 58 -5.8 21.5
09:30 1028 30.36 857 25.31 1.6 34.9 58 -5.8 21.6
09:35 1028 30.36 857 25.31 1.6 34.8 58 -5.9 21.3
09:40 1028 30.36 857 25.31 1.5 34.7 58 -5.8 21.6
09:45 1028 30.36 857 25.31 1.5 34.7 59 -5.8 21.6
09:50 1028 30.36 857 25.31 1.5 34.7 58 -5.8 21.6
09:55 1028 30.36 857 25.31 1.6 34.8 57 -5.9 21.3
10:00 1028 30.36 857 25.31 1.6 35 57 -5.9 21.4
10:05 1028 30.36 857 25.31 1.7 35.1 57 -6 21.2
10:10 1028 30.36 857 25.31 1.8 35.2 57 -5.9 21.5
10:15 1028 30.36 857 25.31 1.8 35.2 58 -5.7 21.8
10:20 1028 30.36 857 25.31 1.6 34.9 60 -5.3 22.4
10:25 1029 30.39 858 25.34 1.6 34.9 60 -5.3 22.5
10:30 1029 30.39 858 25.34 1.7 35.1 58 -5.7 21.8
10:35 1029 30.39 858 25.34 1.8 35.2 58 -5.5 22.1
10:40 1029 30.39 858 25.34 1.8 35.3 58 -5.5 22.1
10:45 1029 30.39 859 25.37 1.9 35.4 58 -5.6 21.9
10:50 1029 30.39 859 25.37 2 35.6 57 -5.7 21.8
10:55 1030 30.42 859 25.37 2.1 35.8 56 -5.7 21.8
11:00 1030 30.42 859 25.37 2.2 35.9 57 -5.4 22.3
11:05 1030 30.42 859 25.37 2 35.7 58 -5.4 22.2
11:10 1030 30.42 859 25.37 2 35.6 57 -5.5 22
11:15 1030 30.42 859 25.37 2 35.6 58 -5.5 22.1
11:20 1030 30.42 859 25.37 2 35.6 59 -5.2 22.6
11:25 1030 30.42 859 25.37 2.1 35.8 59 -5.2 22.7
11:30 1030 30.42 859 25.37 2.3 36.1 57 -5.4 22.2
11:35 1029 30.39 859 25.37 2.5 36.5 56 -5.5 22.1
11:40 1029 30.39 859 25.37 2.6 36.6 55 -5.6 22
11:45 1029 30.39 859 25.37 2.7 36.9 54 -5.6 22
11:50 1029 30.39 859 25.37 2.9 37.1 54 -5.5 22.2
11:55 1029 30.39 858 25.34 3.3 37.9 53 -5.5 22.1
12:00 1029 30.39 858 25.34 3.9 39 52 -5.1 22.8
12:05 1029 30.39 858 25.34 3.8 38.9 53 -4.9 23.3
12:10 1029 30.39 858 25.34 3.6 38.5 54 -4.9 23.2
12:15 1029 30.39 858 25.34 3.5 38.3 54 -4.9 23.1
12:20 1029 30.39 858 25.34 3.9 39 52 -5.1 22.8
12:25 1029 30.39 858 25.34 4 39.2 52 -5 23
12:30 1028 30.36 858 25.34 4 39.3 51 -5.2 22.6
12:35 1028 30.36 857 25.31 4.4 39.9 49 -5.3 22.5
12:40 1028 30.36 857 25.31 4.8 40.6 48 -5.4 22.3
12:45 1028 30.36 857 25.31 5.1 41.2 47 -5.3 22.5
12:50 1028 30.36 857 25.31 6 42.7 44 -5.5 22.2
12:55 1028 30.36 857 25.31 6.4 43.5 44 -5 23
13:00 1028 30.36 857 25.31 6.7 44.1 42 -5.3 22.5
13:05 1028 30.36 857 25.31 6.6 43.9 43 -5.2 22.6
13:10 1028 30.36 857 25.31 7.1 44.7 41 -5.3 22.5
13:15 1028 30.36 857 25.31 7.3 45.1 40 -5.5 22.1
13:20 1028 30.36 857 25.31 7.1 44.8 42 -5 23
13:25 1028 30.36 857 25.31 7.3 45.2 41 -5.1 22.8
13:30 1028 30.36 857 25.31 7.5 45.6 40 -5.2 22.6
13:35 1028 30.36 857 25.31 7.6 45.6 40 -5.3 22.5
13:40 1028 30.36 857 25.31 7.2 45 42 -4.8 23.4
13:45 1028 30.36 857 25.31 7 44.6 42 -5.1 22.8
13:50 1028 30.36 857 25.31 7.1 44.9 40 -5.4 22.2
13:55 1027 30.33 857 25.31 7.3 45.1 40 -5.6 22
14:00 1027 30.33 857 25.31 7.2 45 41 -5.1 22.9
14:05 1027 30.33 857 25.31 7.3 45.2 42 -4.8 23.4
14:10 1027 30.33 857 25.31 7.5 45.6 40 -5.1 22.9
14:15 1028 30.36 857 25.31 8.1 46.6 38 -5.2 22.6
14:20 1027 30.33 857 25.31 7.8 46 39 -5.3 22.5
14:25 1027 30.33 857 25.31 7.6 45.7 39 -5.4 22.2
14:30 1027 30.33 856 25.28 7.7 45.9 39 -5.2 22.6
14:35 1027 30.33 857 25.31 7.7 45.9 41 -4.6 23.7
14:40 1027 30.33 857 25.31 6.8 44.3 43 -4.7 23.5
14:45 1027 30.33 857 25.31 5.8 42.5 46 -4.9 23.2
14:50 1027 30.33 857 25.31 6.3 43.3 45 -4.9 23.2
14:55 1027 30.33 857 25.31 6.1 43 46 -4.7 23.6
15:00 1027 30.33 857 25.31 5.9 42.7 45 -5.1 22.9
15:05 1027 30.33 857 25.31 6 42.8 46 -4.8 23.4
15:10 1027 30.33 856 25.28 5.6 42.1 47 -4.8 23.3
15:15 1027 30.33 857 25.31 5.8 42.5 46 -5 23.1
15:20 1027 30.33 857 25.31 5.8 42.5 44 -5.5 22.1
15:25 1027 30.33 857 25.31 6.8 44.3 42 -5.2 22.6
15:30 1027 30.33 857 25.31 6.9 44.4 43 -4.8 23.4
15:35 1027 30.33 857 25.31 5.9 42.6 45 -5.1 22.8
15:40 1027 30.33 856 25.28 5.8 42.4 45 -5.3 22.4
15:45 1027 30.33 856 25.28 5.7 42.3 45 -5.2 22.6
15:50 1027 30.33 856 25.28 5.9 42.6 45 -5.2 22.7
15:55 1027 30.33 856 25.28 6.4 43.5 42 -5.7 21.8
16:00 1027 30.33 856 25.28 7.1 44.8 41 -5.4 22.4
16:05 1027 30.33 856 25.28 7.5 45.5 40 -5.2 22.6
16:10 1027 30.33 856 25.28 7.7 45.8 39 -5.5 22.2
16:15 1027 30.33 856 25.28 7.4 45.4 41 -5 23.1
16:20 1027 30.33 856 25.28 7.1 44.8 42 -4.9 23.2
16:25 1027 30.33 856 25.28 6.8 44.2 42 -5.3 22.5
16:30 1027 30.33 856 25.28 6.5 43.7 43 -5.2 22.7
16:35 1027 30.33 856 25.28 6.6 43.8 43 -5.2 22.7
16:40 1027 30.33 856 25.28 6.9 44.4 41 -5.3 22.4
16:45 1027 30.33 856 25.28 7.4 45.3 40 -5.4 22.2
16:50 1027 30.33 856 25.28 8 46.4 38 -5.4 22.3
16:55 1027 30.33 856 25.28 8.1 46.6 38 -5.4 22.3
17:00 1027 30.33 856 25.28 7.7 45.9 40 -5.1 22.8
17:05 1027 30.33 856 25.28 7.7 45.8 40 -5.1 22.9
17:10 1027 30.33 856 25.28 7.8 46.1 39 -5.3 22.5
17:15 1027 30.33 856 25.28 7.9 46.3 39 -5.2 22.6
17:20 1027 30.33 856 25.28 7.9 46.1 38 -5.4 22.2
17:25 1027 30.33 856 25.28 7.8 46 40 -5.1 22.8
17:30 1027 30.33 856 25.28 7.4 45.4 40 -5.2 22.6
17:35 1027 30.33 856 25.28 6.9 44.4 42 -5.3 22.5
17:40 1027 30.33 856 25.28 7.2 44.9 41 -5.3 22.5
17:45 1027 30.33 856 25.28 7.4 45.3 40 -5.2 22.7
17:50 1027 30.33 856 25.28 7.5 45.5 40 -5.2 22.7
17:55 1027 30.33 856 25.28 7.3 45.2 40 -5.4 22.3
18:00 1027 30.33 856 25.28 7.2 44.9 41 -5.2 22.6
18:05 1027 30.33 856 25.28 7 44.5 42 -5.2 22.7
18:10 1027 30.33 856 25.28 6.6 43.8 43 -5 23
18:15 1027 30.33 856 25.28 6 42.8 45 -4.9 23.1
18:20 1027 30.33 856 25.28 5.6 42 46 -5.1 22.9
18:25 1027 30.33 856 25.28 5.3 41.5 48 -4.7 23.5
18:30 1027 30.33 856 25.28 5.2 41.3 47 -5.1 22.8
18:35 1027 30.33 856 25.28 5.1 41.1 48 -5.2 22.7
18:40 1027 30.33 856 25.28 5 41 48 -5.1 22.9
18:45 1027 30.33 856 25.28 5 41 48 -5.1 22.9
18:50 1027 30.33 856 25.28 4.9 40.7 48 -5.2 22.7
18:55 1027 30.33 856 25.28 4.8 40.6 48 -5.2 22.7
19:00 1027 30.33 856 25.28 4.7 40.4 49 -5.2 22.6
19:05 1027 30.33 856 25.28 4.7 40.5 49 -5 23
19:10 1027 30.33 856 25.28 4.6 40.3 50 -4.9 23.2
19:15 1027 30.33 856 25.28 4.5 40 51 -4.8 23.3
19:20 1027 30.33 856 25.28 4.3 39.7 53 -4.5 23.8
19:25 1027 30.33 856 25.28 3.7 38.6 54 -4.7 23.5
19:30 1027 30.33 856 25.28 3.5 38.4 53 -5.1 22.8
19:35 1027 30.33 856 25.28 3.7 38.6 54 -4.9 23.3
19:40 1027 30.33 856 25.28 3.6 38.5 55 -4.7 23.6
19:45 1027 30.33 856 25.28 3.4 38.1 54 -5.1 22.9
19:50 1027 30.33 856 25.28 3.7 38.6 53 -5.1 22.8
19:55 1027 30.33 856 25.28 3.8 38.8 53 -5 23
20:00 1027 30.33 856 25.28 3.8 38.9 52 -5.2 22.7
20:05 1027 30.33 856 25.28 3.9 39 51 -5.3 22.5
20:10 1027 30.33 856 25.28 4.2 39.5 49 -5.6 21.9
20:15 1026 30.3 856 25.28 4.3 39.8 50 -5.3 22.5
20:20 1026 30.3 856 25.28 3.9 39 53 -4.9 23.2
20:25 1026 30.3 856 25.28 3.3 37.9 55 -5 23.1
20:30 1026 30.3 856 25.28 3 37.3 55 -5.1 22.8
20:35 1026 30.3 856 25.28 2.9 37.2 56 -5.1 22.8
20:40 1026 30.3 855 25.25 2.8 37.1 56 -5.1 22.8
20:45 1026 30.3 855 25.25 2.6 36.7 58 -4.8 23.3
20:50 1026 30.3 855 25.25 1.9 35.5 60 -5 23.1
20:55 1026 30.3 855 25.25 1.5 34.6 61 -5.2 22.7
21:00 1026 30.3 855 25.25 1.5 34.6 60 -5.5 22.1
21:05 1026 30.3 855 25.25 1.9 35.4 58 -5.4 22.3
21:10 1026 30.3 855 25.25 2.3 36.1 57 -5.3 22.5
21:15 1026 30.3 855 25.25 2.1 35.9 58 -5.2 22.6
21:20 1026 30.3 855 25.25 2 35.6 59 -5.2 22.6
21:25 1026 30.3 855 25.25 1.8 35.3 60 -5 23
21:30 1026 30.3 855 25.25 1.9 35.5 60 -5.1 22.8
21:35 1026 30.3 855 25.25 2.1 35.8 60 -5 23.1
21:40 1025 30.27 854 25.22 2.2 35.9 58 -5.2 22.6
21:45 1025 30.27 854 25.22 2.1 35.7 61 -4.8 23.4
21:50 1025 30.27 854 25.22 1.4 34.5 63 -5 23
21:55 1025 30.27 854 25.22 1 33.8 64 -5.1 22.8
22:00 1025 30.27 854 25.22 0.8 33.5 64 -5.1 22.8
22:05 1024 30.24 853 25.19 0.6 33.1 65 -5.2 22.7
22:10 1024 30.24 853 25.19 0.6 33.1 65 -5.3 22.5
22:15 1024 30.24 853 25.19 0.7 33.3 63 -5.4 22.2
22:20 1024 30.24 853 25.19 1.1 34 62 -5.3 22.5
22:25 1024 30.24 853 25.19 1.1 34.1 63 -5.2 22.7
22:30 1024 30.24 853 25.19 1.3 34.3 62 -5.2 22.6
22:35 1024 30.24 853 25.19 1.3 34.4 62 -5.1 22.9
22:40 1024 30.24 853 25.19 1 33.8 64 -5.1 22.8
22:45 1024 30.24 854 25.22 0.5 32.9 66 -5 23
22:50 1025 30.27 854 25.22 0.4 32.7 66 -5.3 22.5
22:55 1025 30.27 854 25.22 0.7 33.3 65 -5.2 22.6
23:00 1024 30.24 854 25.22 0.8 33.4 65 -5.1 22.8
23:05 1024 30.24 854 25.22 0.7 33.2 66 -5 23
23:10 1024 30.24 853 25.19 0.3 32.6 67 -5.1 22.8
23:15 1024 30.24 853 25.19 0.4 32.7 65 -5.4 22.3
23:20 1024 30.24 853 25.19 0.5 33 67 -4.9 23.2
23:25 1024 30.24 853 25.19 0.3 32.5 64 -5.7 21.7
23:30 1024 30.24 853 25.19 0.9 33.6 62 -5.6 21.9
23:35 1024 30.24 853 25.19 1.1 33.9 61 -5.7 21.8
23:40 1024 30.24 853 25.19 1.3 34.4 61 -5.5 22.1
23:45 1024 30.24 853 25.19 1.6 34.8 60 -5.4 22.3
23:50 1024 30.24 853 25.19 1.7 35.1 60 -5.2 22.7
23:55 1024 30.24 853 25.19 1.5 34.8 62 -5 22.9
24:00 1024 30.24 854 25.22 1.2 34.2 64 -4.9 23.1